createdAt,value
2023-03-26T00:02:29.891Z,80.10
2023-03-26T00:05:02.124Z,79.84
2023-03-26T00:07:33.987Z,79.97
2023-03-26T00:10:07.156Z,80.10
2023-03-26T00:12:39.100Z,80.23
2023-03-26T00:15:12.724Z,80.45
2023-03-26T00:17:46.728Z,80.26
2023-03-26T00:20:19.033Z,80.31
2023-03-26T00:22:51.552Z,80.43
2023-03-26T00:25:24.890Z,80.19
2023-03-26T00:27:57.383Z,80.51
2023-03-26T00:30:29.873Z,80.38
2023-03-26T00:33:04.456Z,80.33
2023-03-26T00:35:38.499Z,80.26
2023-03-26T00:38:10.959Z,80.57
2023-03-26T00:40:44.331Z,80.66
2023-03-26T00:43:19.829Z,80.64
2023-03-26T00:45:54.467Z,80.28
2023-03-26T00:48:41.869Z,80.59
2023-03-26T00:51:18.430Z,80.54
2023-03-26T00:53:52.190Z,80.51
2023-03-26T00:56:24.172Z,80.55
2023-03-26T00:58:57.853Z,80.39
2023-03-26T01:01:32.685Z,80.62
2023-03-26T01:04:27.494Z,80.41
2023-03-26T01:07:02.890Z,80.63
2023-03-26T01:09:38.222Z,80.63
2023-03-26T01:12:13.354Z,80.68
2023-03-26T01:14:45.933Z,80.83
2023-03-26T01:17:18.507Z,80.91
2023-03-26T01:19:56.444Z,80.81
2023-03-26T01:22:29.194Z,80.93
2023-03-26T01:25:01.257Z,81.07
2023-03-26T01:27:39.107Z,81.06
2023-03-26T01:30:18.297Z,80.90
2023-03-26T01:32:57.855Z,80.71
2023-03-26T01:35:45.963Z,80.98
2023-03-26T01:38:24.691Z,80.69
2023-03-26T01:41:00.465Z,80.76
2023-03-26T01:43:36.758Z,80.78
2023-03-26T01:46:11.027Z,80.96
2023-03-26T01:48:45.245Z,81.21
2023-03-26T01:51:27.433Z,81.34
2023-03-26T01:54:00.472Z,81.12
2023-03-26T01:56:38.102Z,81.38
2023-03-26T01:59:20.611Z,81.50
2023-03-26T02:01:58.224Z,81.26
2023-03-26T02:04:36.558Z,81.36
2023-03-26T02:07:10.683Z,81.39
2023-03-26T02:09:46.411Z,81.58
2023-03-26T02:12:19.027Z,81.48
2023-03-26T02:14:51.489Z,81.67
2023-03-26T02:17:24.627Z,81.59
2023-03-26T02:19:56.978Z,81.72
2023-03-26T02:22:30.058Z,81.71
2023-03-26T02:25:02.190Z,81.99
2023-03-26T02:27:34.212Z,81.97
2023-03-26T02:30:09.600Z,82.09
2023-03-26T02:32:43.797Z,81.96
2023-03-26T02:35:16.811Z,82.09
2023-03-26T02:37:51.091Z,81.97
2023-03-26T02:40:22.946Z,82.19
2023-03-26T02:42:55.338Z,82.29
2023-03-26T02:45:27.413Z,82.01
2023-03-26T02:48:01.082Z,81.70
2023-03-26T02:50:36.912Z,81.99
2023-03-26T02:53:08.654Z,82.01
2023-03-26T02:55:40.893Z,81.95
2023-03-26T02:58:12.783Z,82.35
2023-03-26T03:00:44.653Z,82.26
2023-03-26T03:03:17.536Z,82.30
2023-03-26T03:05:50.211Z,82.46
2023-03-26T03:08:22.731Z,82.26
2023-03-26T03:11:02.128Z,82.10
2023-03-26T03:13:34.185Z,82.16
2023-03-26T03:16:07.072Z,82.10
2023-03-26T03:18:39.175Z,82.03
2023-03-26T03:21:11.127Z,81.79
2023-03-26T03:23:43.077Z,82.05
2023-03-26T03:26:18.449Z,81.76
2023-03-26T03:28:50.832Z,81.85
2023-03-26T03:31:23.201Z,82.22
2023-03-26T03:33:55.371Z,81.83
2023-03-26T03:36:30.572Z,81.78
2023-03-26T03:39:02.964Z,81.87
2023-03-26T03:41:35.016Z,81.61
2023-03-26T03:44:07.092Z,81.58
2023-03-26T03:46:39.222Z,81.83
2023-03-26T03:49:11.235Z,81.75
2023-03-26T03:51:43.376Z,81.42
2023-03-26T03:54:15.358Z,81.27
2023-03-26T03:56:47.716Z,81.15
2023-03-26T03:59:19.861Z,81.15
2023-03-26T04:01:52.081Z,81.04
2023-03-26T04:04:24.849Z,80.96
2023-03-26T04:06:56.994Z,80.93
2023-03-26T04:09:29.081Z,80.88
2023-03-26T04:12:01.081Z,80.75
2023-03-26T04:14:33.242Z,80.77
2023-03-26T04:17:05.626Z,80.72
2023-03-26T04:19:38.590Z,80.69
2023-03-26T04:22:12.132Z,80.60
2023-03-26T04:24:44.146Z,80.46
2023-03-26T04:27:19.165Z,80.39
2023-03-26T04:29:52.452Z,80.46
2023-03-26T04:32:26.799Z,80.36
2023-03-26T04:35:00.424Z,80.27
2023-03-26T04:37:34.646Z,80.22
2023-03-26T04:40:09.331Z,80.08
2023-03-26T04:42:46.244Z,80.22
2023-03-26T04:45:23.119Z,80.13
2023-03-26T04:47:56.781Z,80.12
2023-03-26T04:50:29.385Z,80.10
2023-03-26T04:53:02.565Z,80.32
2023-03-26T04:55:39.767Z,80.57
2023-03-26T04:58:14.180Z,80.78
2023-03-26T05:00:47.634Z,81.46
2023-03-26T05:03:21.289Z,81.48
2023-03-26T05:05:53.612Z,81.50
2023-03-26T05:08:26.892Z,81.50
2023-03-26T05:10:58.864Z,81.43
2023-03-26T05:13:31.392Z,81.41
2023-03-26T05:16:03.280Z,81.37
2023-03-26T05:18:35.134Z,81.21
2023-03-26T05:21:08.117Z,81.19
2023-03-26T05:23:40.195Z,81.11
2023-03-26T05:26:13.138Z,81.07
2023-03-26T05:28:45.861Z,81.07
2023-03-26T05:31:22.363Z,81.09
2023-03-26T05:33:55.249Z,80.80
2023-03-26T05:36:28.555Z,80.81
2023-03-26T05:39:00.688Z,80.73
2023-03-26T05:41:33.245Z,80.73
2023-03-26T05:44:05.491Z,80.71
2023-03-26T05:46:37.569Z,80.61
2023-03-26T05:49:09.476Z,80.41
2023-03-26T05:51:41.613Z,80.42
2023-03-26T05:54:13.942Z,80.21
2023-03-26T05:56:45.845Z,80.07
2023-03-26T05:59:18.712Z,79.88
2023-03-26T06:01:51.439Z,80.04
2023-03-26T06:04:23.906Z,79.95
2023-03-26T06:06:57.076Z,79.71
2023-03-26T06:09:30.010Z,79.83
2023-03-26T06:12:02.270Z,79.25
2023-03-26T06:14:34.496Z,78.81
2023-03-26T06:17:06.733Z,78.66
2023-03-26T06:19:38.584Z,78.61
2023-03-26T06:22:12.473Z,78.18
2023-03-26T06:24:44.810Z,78.00
2023-03-26T06:27:16.953Z,78.06
2023-03-26T06:29:49.160Z,77.98
2023-03-26T06:32:21.262Z,78.00
2023-03-26T06:34:53.107Z,78.08
2023-03-26T06:37:25.265Z,78.34
2023-03-26T06:39:57.194Z,79.33
2023-03-26T06:42:53.619Z,79.34
2023-03-26T06:45:21.511Z,79.80
2023-03-26T06:47:53.560Z,79.88
2023-03-26T06:50:25.467Z,79.84
2023-03-26T06:52:57.827Z,80.33
2023-03-26T06:55:31.435Z,80.74
2023-03-26T06:58:03.477Z,80.85
2023-03-26T07:00:35.472Z,81.28
2023-03-26T07:03:08.581Z,80.90
2023-03-26T07:05:40.628Z,81.14
2023-03-26T07:08:12.910Z,81.39
2023-03-26T07:10:45.042Z,81.27
2023-03-26T07:13:17.034Z,81.23
2023-03-26T07:15:50.892Z,81.60
2023-03-26T07:18:23.172Z,81.69
2023-03-26T07:20:55.972Z,81.71
2023-03-26T07:23:29.669Z,81.65
2023-03-26T07:26:01.958Z,81.72
2023-03-26T07:28:39.291Z,81.62
2023-03-26T07:31:20.649Z,81.33
2023-03-26T07:33:56.953Z,81.24
2023-03-26T07:36:32.444Z,81.04
2023-03-26T07:39:16.510Z,81.09
2023-03-26T07:41:53.939Z,80.91
2023-03-26T07:44:45.089Z,79.83
2023-03-26T07:47:26.208Z,79.05
2023-03-26T07:49:59.445Z,79.17
2023-03-26T07:52:32.311Z,79.18
2023-03-26T07:55:05.094Z,78.89
2023-03-26T07:57:46.943Z,78.43
2023-03-26T08:00:22.190Z,78.06
2023-03-26T08:03:16.076Z,78.17
2023-03-26T08:05:54.439Z,77.38
2023-03-26T08:08:30.945Z,77.61
2023-03-26T08:11:13.616Z,78.03
2023-03-26T08:13:57.738Z,77.21
2023-03-26T08:16:35.697Z,76.46
2023-03-26T08:19:14.026Z,76.17
2023-03-26T08:21:49.430Z,76.56
2023-03-26T08:24:27.000Z,76.78
2023-03-26T08:27:02.775Z,76.68
2023-03-26T08:29:39.254Z,75.85
2023-03-26T08:32:15.738Z,75.66
2023-03-26T08:34:48.620Z,75.66
2023-03-26T08:37:21.416Z,75.21
2023-03-26T08:39:53.198Z,74.44
2023-03-26T08:43:06.432Z,73.61
2023-03-26T08:45:52.204Z,74.16
2023-03-26T08:48:54.768Z,74.78
2023-03-26T08:51:53.534Z,74.94
2023-03-26T08:55:03.743Z,75.07
2023-03-26T08:57:50.718Z,74.39
2023-03-26T09:00:54.714Z,74.32
2023-03-26T09:03:41.621Z,74.15
2023-03-26T09:06:25.819Z,74.26
2023-03-26T09:09:32.709Z,74.30
2023-03-26T09:12:43.766Z,74.28
2023-03-26T09:15:54.610Z,75.03
2023-03-26T09:19:01.208Z,75.32
2023-03-26T09:21:55.655Z,75.48
2023-03-26T09:24:58.484Z,75.49
2023-03-26T09:27:39.805Z,75.65
2023-03-26T09:30:36.442Z,74.47
2023-03-26T09:33:43.227Z,73.70
2023-03-26T09:36:35.124Z,72.96
2023-03-26T09:39:13.726Z,73.37
2023-03-26T09:41:50.759Z,71.14
2023-03-26T09:44:54.177Z,69.83
2023-03-26T09:48:01.322Z,70.70
2023-03-26T09:50:38.764Z,67.06
2023-03-26T09:53:29.820Z,66.94
2023-03-26T09:56:11.930Z,66.49
2023-03-26T09:58:57.401Z,67.63
2023-03-26T10:01:35.117Z,66.85
2023-03-26T10:04:37.662Z,67.54
2023-03-26T10:07:15.882Z,68.59
2023-03-26T10:09:56.872Z,69.23
2023-03-26T10:12:35.093Z,68.81
2023-03-26T10:15:21.159Z,68.74
2023-03-26T10:18:27.428Z,67.58
2023-03-26T10:21:02.941Z,67.84
2023-03-26T10:23:49.972Z,66.57
2023-03-26T10:26:37.462Z,65.60
2023-03-26T10:29:36.121Z,63.77
2023-03-26T10:32:20.578Z,63.03
2023-03-26T10:34:57.299Z,63.43
2023-03-26T10:37:39.986Z,65.09
2023-03-26T10:40:22.527Z,65.28
2023-03-26T10:43:22.075Z,67.10
2023-03-26T10:46:04.032Z,68.50
2023-03-26T10:48:50.174Z,68.30
2023-03-26T10:51:45.435Z,67.97
2023-03-26T10:54:23.269Z,62.84
2023-03-26T10:56:55.168Z,64.71
2023-03-26T10:59:28.765Z,67.27
2023-03-26T11:02:12.192Z,69.95
2023-03-26T11:04:50.592Z,69.96
2023-03-26T11:07:28.459Z,70.79
2023-03-26T11:10:05.181Z,71.82
2023-03-26T11:12:41.713Z,72.18
2023-03-26T11:15:23.016Z,72.99
2023-03-26T11:18:04.879Z,72.43
2023-03-26T11:20:41.510Z,72.26
2023-03-26T11:23:39.405Z,69.91
2023-03-26T11:26:17.431Z,69.77
2023-03-26T11:29:31.073Z,69.75
2023-03-26T11:32:03.804Z,69.05
2023-03-26T11:34:38.760Z,69.44
2023-03-26T11:37:16.437Z,69.30
2023-03-26T11:39:52.840Z,68.45
2023-03-26T11:42:27.466Z,67.74
2023-03-26T11:45:01.275Z,67.83
2023-03-26T11:47:35.381Z,67.78
2023-03-26T11:50:09.255Z,67.88
2023-03-26T11:52:41.891Z,67.15
2023-03-26T11:55:15.936Z,66.54
2023-03-26T11:57:53.704Z,66.79
2023-03-26T12:00:27.721Z,67.21
2023-03-26T12:03:01.780Z,66.61
2023-03-26T12:05:36.870Z,66.07
2023-03-26T12:08:21.476Z,65.48
2023-03-26T12:11:05.723Z,63.42
2023-03-26T12:13:42.043Z,63.57
2023-03-26T12:16:16.661Z,63.16
2023-03-26T12:19:00.190Z,62.40
2023-03-26T12:21:32.916Z,62.09
2023-03-26T12:24:07.514Z,62.39
2023-03-26T12:26:43.753Z,62.31
2023-03-26T12:29:17.238Z,61.23
2023-03-26T12:31:54.289Z,62.03
2023-03-26T12:34:35.223Z,61.33
2023-03-26T12:37:09.131Z,61.82
2023-03-26T12:40:11.853Z,60.76
2023-03-26T12:44:46.259Z,60.43
2023-03-26T12:48:06.744Z,54.79
2023-03-26T12:50:46.467Z,55.17
2023-03-26T12:53:50.610Z,57.41
2023-03-26T12:56:36.469Z,58.33
2023-03-26T12:59:22.926Z,55.44
2023-03-26T13:01:59.993Z,53.97
2023-03-26T13:05:05.490Z,53.09
2023-03-26T13:07:54.776Z,54.61
2023-03-26T13:10:39.718Z,55.30
2023-03-26T13:13:26.160Z,55.89
2023-03-26T13:16:02.230Z,56.92
2023-03-26T13:18:43.638Z,57.56
2023-03-26T13:21:20.988Z,59.76
2023-03-26T13:23:59.852Z,61.96
2023-03-26T13:26:42.378Z,62.76
2023-03-26T13:29:19.016Z,63.58
2023-03-26T13:31:58.939Z,63.15
2023-03-26T13:34:38.179Z,62.91
2023-03-26T13:37:15.193Z,63.15
2023-03-26T13:39:57.270Z,62.39
2023-03-26T13:42:38.151Z,62.21
2023-03-26T13:45:18.470Z,62.00
2023-03-26T13:47:52.079Z,61.61
2023-03-26T13:50:28.282Z,61.41
2023-03-26T13:53:03.409Z,61.18
2023-03-26T13:55:37.542Z,61.33
2023-03-26T13:58:16.283Z,60.25
2023-03-26T14:00:54.857Z,59.69
2023-03-26T14:03:31.965Z,60.37
2023-03-26T14:06:07.982Z,59.74
2023-03-26T14:08:42.431Z,59.86
2023-03-26T14:11:19.055Z,59.26
2023-03-26T14:13:53.150Z,58.90
2023-03-26T14:16:28.384Z,59.31
2023-03-26T14:19:05.510Z,58.87
2023-03-26T14:21:55.936Z,58.56
2023-03-26T14:24:50.323Z,58.16
2023-03-26T14:27:47.723Z,57.62
2023-03-26T14:30:49.554Z,57.73
2023-03-26T14:33:36.102Z,57.14
2023-03-26T14:36:20.749Z,56.99
2023-03-26T14:39:25.706Z,57.35
2023-03-26T14:42:00.475Z,57.45
2023-03-26T14:45:00.069Z,57.16
2023-03-26T14:47:33.119Z,56.54
2023-03-26T14:50:42.725Z,55.80
2023-03-26T14:53:22.876Z,56.06
2023-03-26T14:56:28.201Z,56.25
2023-03-26T14:59:39.474Z,56.48
2023-03-26T15:02:45.176Z,56.56
2023-03-26T15:05:59.795Z,56.06
2023-03-26T15:09:13.897Z,55.86
2023-03-26T15:11:52.949Z,54.85
2023-03-26T15:14:58.319Z,53.55
2023-03-26T15:17:55.174Z,52.55
2023-03-26T15:21:16.434Z,52.24
2023-03-26T15:24:26.521Z,52.34
2023-03-26T15:27:32.248Z,53.92
2023-03-26T15:30:44.078Z,54.41
2023-03-26T15:33:48.833Z,55.13
2023-03-26T15:36:54.440Z,55.58
2023-03-26T15:39:59.559Z,55.31
2023-03-26T15:42:38.439Z,55.48
2023-03-26T15:45:35.404Z,55.93
2023-03-26T15:48:57.944Z,55.64
2023-03-26T15:51:47.280Z,56.65
2023-03-26T15:54:29.878Z,56.81
2023-03-26T15:57:17.142Z,56.82
2023-03-26T16:00:12.808Z,57.24
2023-03-26T16:02:50.642Z,58.01
2023-03-26T16:05:37.455Z,58.55
2023-03-26T16:08:17.071Z,58.67
2023-03-26T16:10:52.531Z,59.10
2023-03-26T16:13:34.116Z,59.55
2023-03-26T16:16:27.160Z,59.80
2023-03-26T16:19:08.444Z,59.85
2023-03-26T16:21:47.811Z,60.21
2023-03-26T16:24:28.214Z,59.96
2023-03-26T16:27:33.761Z,60.02
2023-03-26T16:30:34.567Z,59.67
2023-03-26T16:33:16.878Z,59.31
2023-03-26T16:36:07.559Z,59.51
2023-03-26T16:39:03.719Z,59.91
2023-03-26T16:41:38.138Z,60.12
2023-03-26T16:44:14.266Z,60.16
2023-03-26T16:46:53.605Z,60.51
2023-03-26T16:49:42.173Z,60.74
2023-03-26T16:52:35.812Z,61.15
2023-03-26T16:55:16.981Z,61.60
2023-03-26T16:57:57.039Z,61.69
2023-03-26T17:00:42.392Z,62.07
2023-03-26T17:03:43.809Z,62.36
2023-03-26T17:06:31.006Z,62.59
2023-03-26T17:09:15.420Z,62.72
2023-03-26T17:11:50.231Z,63.22
2023-03-26T17:14:32.319Z,63.24
2023-03-26T17:17:27.472Z,63.70
2023-03-26T17:20:05.060Z,63.77
2023-03-26T17:22:43.542Z,63.70
2023-03-26T17:25:35.382Z,63.71
2023-03-26T17:28:20.390Z,63.93
2023-03-26T17:31:03.340Z,63.88
2023-03-26T17:33:39.522Z,63.84
2023-03-26T17:36:45.993Z,64.01
2023-03-26T17:40:09.924Z,63.98
2023-03-26T17:43:06.315Z,64.16
2023-03-26T17:45:39.659Z,64.03
2023-03-26T17:48:18.264Z,64.15
2023-03-26T17:50:54.165Z,64.63
2023-03-26T17:53:30.855Z,64.81
2023-03-26T17:56:04.872Z,64.45
2023-03-26T17:58:42.770Z,64.64
2023-03-26T18:01:22.593Z,64.74
2023-03-26T18:03:57.913Z,64.78
2023-03-26T18:06:42.260Z,64.91
2023-03-26T18:09:15.749Z,64.84
2023-03-26T18:12:00.551Z,65.08
2023-03-26T18:14:55.944Z,65.17
2023-03-26T18:17:28.120Z,65.31
2023-03-26T18:20:07.572Z,65.23
2023-03-26T18:22:39.409Z,65.39
2023-03-26T18:25:25.426Z,65.54
2023-03-26T18:27:59.655Z,65.52
2023-03-26T18:30:31.724Z,65.57
2023-03-26T18:33:06.419Z,65.75
2023-03-26T18:35:45.116Z,65.97
2023-03-26T18:38:35.659Z,66.02
2023-03-26T18:41:13.550Z,65.97
2023-03-26T18:43:45.363Z,66.18
2023-03-26T18:46:17.966Z,66.20
2023-03-26T18:48:49.928Z,66.27
2023-03-26T18:51:23.390Z,66.41
2023-03-26T18:53:58.129Z,66.53
2023-03-26T18:56:36.251Z,66.84
2023-03-26T18:59:28.327Z,66.81
2023-03-26T19:02:01.521Z,66.73
2023-03-26T19:04:35.071Z,66.88
2023-03-26T19:07:10.533Z,66.93
2023-03-26T19:09:43.350Z,66.98
2023-03-26T19:12:22.892Z,66.96
2023-03-26T19:14:57.178Z,67.14
2023-03-26T19:17:31.578Z,67.23
2023-03-26T19:20:04.314Z,67.35
2023-03-26T19:22:36.813Z,67.48
2023-03-26T19:25:17.234Z,67.56
2023-03-26T19:27:49.591Z,67.52
2023-03-26T19:30:29.169Z,67.68
2023-03-26T19:33:12.306Z,67.60
2023-03-26T19:35:46.550Z,67.91
2023-03-26T19:38:25.803Z,68.03
2023-03-26T19:40:59.057Z,68.13
2023-03-26T19:43:31.901Z,68.17
2023-03-26T19:46:03.751Z,68.19
2023-03-26T19:48:46.150Z,68.30
2023-03-26T19:51:23.665Z,68.49
2023-03-26T19:53:58.458Z,68.64
2023-03-26T19:56:33.851Z,68.83
2023-03-26T19:59:06.306Z,68.86
2023-03-26T20:01:38.203Z,68.92
2023-03-26T20:04:13.755Z,69.04
2023-03-26T20:06:49.199Z,69.13
2023-03-26T20:09:21.415Z,69.32
2023-03-26T20:11:54.353Z,69.57
2023-03-26T20:14:27.054Z,69.73
2023-03-26T20:16:58.918Z,69.56
2023-03-26T20:19:31.386Z,69.85
2023-03-26T20:22:03.253Z,69.71
2023-03-26T20:24:35.813Z,69.82
2023-03-26T20:27:07.723Z,69.92
2023-03-26T20:29:40.263Z,70.18
2023-03-26T20:32:24.171Z,70.30
2023-03-26T20:34:57.904Z,70.45
2023-03-26T20:37:30.498Z,70.36
2023-03-26T20:40:06.797Z,70.67
2023-03-26T20:42:38.631Z,70.66
2023-03-26T20:45:18.628Z,70.63
2023-03-26T20:47:51.238Z,70.69
2023-03-26T20:50:26.413Z,70.85
2023-03-26T20:52:59.865Z,70.89
2023-03-26T20:55:31.807Z,71.16
2023-03-26T20:58:04.604Z,71.06
2023-03-26T21:00:37.324Z,71.18
2023-03-26T21:03:10.401Z,71.14
2023-03-26T21:05:43.538Z,71.30
2023-03-26T21:08:19.609Z,71.25
2023-03-26T21:10:52.601Z,71.54
2023-03-26T21:13:34.044Z,71.43
2023-03-26T21:16:08.183Z,71.38
2023-03-26T21:18:43.833Z,71.66
2023-03-26T21:21:28.203Z,71.68
2023-03-26T21:24:00.586Z,71.65
2023-03-26T21:26:41.596Z,71.91
2023-03-26T21:29:14.253Z,72.01
2023-03-26T21:31:47.255Z,72.15
2023-03-26T21:34:20.127Z,71.92
2023-03-26T21:36:53.199Z,72.01
2023-03-26T21:39:25.682Z,72.45
2023-03-26T21:42:05.166Z,72.65
2023-03-26T21:44:38.492Z,72.44
2023-03-26T21:47:11.644Z,72.44
2023-03-26T21:49:44.377Z,72.54
2023-03-26T21:52:17.190Z,72.44
2023-03-26T21:54:49.972Z,73.16
2023-03-26T21:57:42.788Z,72.88
2023-03-26T22:00:18.627Z,73.26
2023-03-26T22:03:00.250Z,73.40
2023-03-26T22:05:41.156Z,73.48
2023-03-26T22:08:23.196Z,73.46
2023-03-26T22:10:55.394Z,73.46
2023-03-26T22:13:27.853Z,73.08
2023-03-26T22:16:00.221Z,73.29
2023-03-26T22:18:33.032Z,73.21
2023-03-26T22:21:06.026Z,73.38
2023-03-26T22:23:39.218Z,73.32
2023-03-26T22:26:11.129Z,73.29
2023-03-26T22:28:43.254Z,73.34
2023-03-26T22:31:15.129Z,73.05
2023-03-26T22:33:47.309Z,73.29
2023-03-26T22:36:22.931Z,73.33
2023-03-26T22:38:56.936Z,73.35
2023-03-26T22:41:29.617Z,73.37
2023-03-26T22:44:16.931Z,73.51
2023-03-26T22:46:52.487Z,73.45
2023-03-26T22:49:27.564Z,73.75
2023-03-26T22:51:59.447Z,73.74
2023-03-26T22:54:31.981Z,73.90
2023-03-26T22:57:03.935Z,73.92
2023-03-26T22:59:36.479Z,73.95
2023-03-26T23:02:09.873Z,74.19
2023-03-26T23:04:42.844Z,74.03
2023-03-26T23:07:14.791Z,74.55
2023-03-26T23:09:47.168Z,74.35
2023-03-26T23:12:18.904Z,74.12
2023-03-26T23:14:53.186Z,74.25
2023-03-26T23:17:25.096Z,74.22
2023-03-26T23:19:57.438Z,74.25
2023-03-26T23:22:29.323Z,74.47
2023-03-26T23:25:01.314Z,74.50
2023-03-26T23:27:33.183Z,74.54
2023-03-26T23:30:05.815Z,74.29
2023-03-26T23:32:38.072Z,74.72
2023-03-26T23:35:11.315Z,74.63
2023-03-26T23:37:43.884Z,74.33
2023-03-26T23:40:16.831Z,74.50
2023-03-26T23:42:49.644Z,74.41
2023-03-26T23:45:22.162Z,74.59
2023-03-26T23:47:54.030Z,74.77
2023-03-26T23:50:29.404Z,74.65
2023-03-26T23:53:01.481Z,74.86
2023-03-26T23:55:35.558Z,74.98
2023-03-26T23:58:05.952Z,74.74
